Time;durP1;ratioP1;P1;durP2;ratioP2;P2;SDS_P1;SDS_P2;PMS_P1;PMS_P2;Temp;Humidity;BMP_temperature;BMP_pressure;BME280_temperature;BME280_humidity;BME280_pressure;Samples;Min_cycle;Max_cycle;Signal;HPM_P1;HPM_P2
2023/09/24 00:01:36;;;;;;;;;6.60;4.80;;;;;18.66;61.31;99285.44;5071906;28;8851;-75
2023/09/24 00:04:07;;;;;;;;;4.00;4.00;;;;;18.53;61.76;99280.00;5075921;28;8960;-75
2023/09/24 00:06:36;;;;;;;;;4.00;3.40;;;;;18.00;62.71;99251.94;5072946;28;8986;-74
2023/09/24 00:09:05;;;;;;;;;6.00;6.00;;;;;17.95;62.46;99206.16;5069292;28;8847;-75
2023/09/24 00:11:34;;;;;;;;;5.80;5.40;;;;;18.12;62.34;99229.16;5067406;28;8855;-74
2023/09/24 00:14:03;;;;;;;;;4.20;4.20;;;;;18.21;61.94;99241.06;5068693;28;8859;-74
2023/09/24 00:16:32;;;;;;;;;3.80;3.80;;;;;18.33;61.56;99259.00;5068851;28;8840;-73
2023/09/24 00:19:02;;;;;;;;;6.20;6.20;;;;;18.45;60.97;99263.59;5068983;28;8852;-74
2023/09/24 00:21:32;;;;;;;;;6.60;5.20;;;;;18.43;61.01;99267.31;5049704;28;8854;-75
2023/09/24 00:24:03;;;;;;;;;6.40;6.00;;;;;18.48;60.53;99270.56;5050761;28;8887;-76
2023/09/24 00:26:32;;;;;;;;;7.40;5.60;;;;;18.53;60.18;99292.41;4999575;28;8861;-74
2023/09/24 00:29:01;;;;;;;;;6.00;6.00;;;;;18.33;60.77;99298.91;5050387;28;8861;-76
2023/09/24 00:31:30;;;;;;;;;7.00;5.00;;;;;18.50;60.22;99316.56;5051016;28;9008;-74
2023/09/24 00:33:59;;;;;;;;;7.60;7.00;;;;;18.44;60.34;99328.44;5033013;28;8873;-75
2023/09/24 00:36:28;;;;;;;;;8.00;7.20;;;;;18.45;60.64;99326.63;5066037;28;8865;-76
2023/09/24 00:38:58;;;;;;;;;5.20;5.20;;;;;18.40;60.33;99339.31;5051127;28;8972;-74
2023/09/24 00:41:27;;;;;;;;;6.20;6.20;;;;;18.27;60.73;99363.09;5065610;28;8876;-75
2023/09/24 00:43:58;;;;;;;;;5.40;5.40;;;;;18.24;61.47;99353.50;5049184;28;8919;-75
2023/09/24 00:46:27;;;;;;;;;6.20;5.20;;;;;18.32;62.27;99343.25;5031666;28;8871;-74
2023/09/24 00:48:59;;;;;;;;;5.60;5.00;;;;;18.38;63.06;99328.75;5029033;28;8872;-75
2023/09/24 00:51:28;;;;;;;;;6.20;6.20;;;;;18.25;62.18;99325.06;5034233;28;8948;-76
2023/09/24 00:54:00;;;;;;;;;5.40;5.00;;;;;18.17;62.68;99328.16;5050601;28;8861;-75
2023/09/24 00:56:29;;;;;;;;;5.00;4.40;;;;;18.20;62.89;99319.19;5053304;28;8880;-73
2023/09/24 00:58:59;;;;;;;;;3.40;3.40;;;;;18.11;62.75;99331.19;5057425;28;8938;-74
2023/09/24 01:01:29;;;;;;;;;6.80;6.60;;;;;17.86;63.50;99331.66;5046927;28;8867;-73
2023/09/24 01:03:58;;;;;;;;;4.20;4.00;;;;;17.93;63.87;99338.31;4980787;28;8871;-73
2023/09/24 01:06:30;;;;;;;;;3.40;3.20;;;;;17.89;64.60;99344.75;5034434;28;8867;-73
2023/09/24 01:09:03;;;;;;;;;3.80;3.00;;;;;17.92;64.09;99347.25;5085932;28;8850;-73
2023/09/24 01:11:33;;;;;;;;;4.20;4.20;;;;;17.97;65.25;99362.03;5069012;28;8939;-77
2023/09/24 01:14:03;;;;;;;;;3.60;3.60;;;;;17.55;65.34;99354.53;5064237;28;8865;-75
2023/09/24 01:16:32;;;;;;;;;2.20;2.20;;;;;17.41;65.73;99330.53;5047686;28;8914;-75
2023/09/24 01:19:03;;;;;;;;;3.60;3.60;;;;;17.31;66.52;99335.47;5027859;28;8959;-76
2023/09/24 01:21:32;;;;;;;;;3.20;3.20;;;;;17.29;66.16;99318.75;5047457;28;8860;-74
2023/09/24 01:24:03;;;;;;;;;4.20;4.20;;;;;17.23;66.82;99324.31;5007565;28;8944;-76
2023/09/24 01:26:32;;;;;;;;;3.60;3.60;;;;;17.42;66.47;99332.22;4981936;28;8874;-75
2023/09/24 01:29:02;;;;;;;;;2.80;2.80;;;;;17.54;66.40;99332.44;4988189;28;8842;-74
2023/09/24 01:31:32;;;;;;;;;2.60;2.20;;;;;17.56;66.36;99319.91;4987831;28;9001;-73
2023/09/24 01:34:02;;;;;;;;;3.00;3.00;;;;;17.33;66.34;99299.03;4971967;28;8851;-76
2023/09/24 01:36:32;;;;;;;;;4.00;3.60;;;;;17.41;66.17;99282.69;4977159;28;9003;-75
2023/09/24 01:39:03;;;;;;;;;3.40;3.40;;;;;17.57;66.07;99276.47;5007030;28;8864;-75
2023/09/24 01:41:32;;;;;;;;;4.20;3.20;;;;;17.49;65.61;99283.97;5007259;28;8868;-74
2023/09/24 01:44:02;;;;;;;;;2.60;2.60;;;;;17.60;66.11;99285.22;5007311;28;8892;-74
2023/09/24 01:46:30;;;;;;;;;2.80;2.80;;;;;17.67;66.02;99286.59;5010817;28;8846;-74
2023/09/24 01:49:01;;;;;;;;;4.00;3.20;;;;;17.48;65.80;99295.56;4994246;28;8853;-72
2023/09/24 01:51:31;;;;;;;;;3.00;3.00;;;;;17.59;65.88;99273.75;5006895;28;8867;-74
2023/09/24 01:54:00;;;;;;;;;3.40;3.40;;;;;17.34;65.43;99272.41;5011129;28;8917;-74
2023/09/24 01:56:30;;;;;;;;;1.40;1.40;;;;;17.35;65.97;99259.97;5009379;28;8876;-75
2023/09/24 01:58:59;;;;;;;;;3.40;3.40;;;;;17.26;66.58;99244.53;4991104;28;8844;-75
2023/09/24 02:01:28;;;;;;;;;3.00;3.00;;;;;17.28;66.11;99235.50;4979058;28;8942;-74
2023/09/24 02:03:59;;;;;;;;;4.00;3.00;;;;;17.22;66.34;99219.03;5064379;28;8880;-74
2023/09/24 02:06:29;;;;;;;;;4.40;4.00;;;;;17.31;66.79;99199.97;5049323;28;8841;-75
2023/09/24 02:09:01;;;;;;;;;2.20;2.00;;;;;17.35;65.16;99199.72;5012742;28;8848;-75
2023/09/24 02:11:31;;;;;;;;;2.60;2.60;;;;;17.44;64.56;99181.53;5048998;28;8840;-74
2023/09/24 02:14:00;;;;;;;;;2.20;2.20;;;;;17.35;64.74;99166.97;5047618;28;8853;-76
2023/09/24 02:16:30;;;;;;;;;1.60;1.60;;;;;17.37;64.52;99155.31;5047259;28;8958;-75
2023/09/24 02:19:00;;;;;;;;;2.80;2.80;;;;;17.37;64.12;99142.03;5030756;28;8961;-74
2023/09/24 02:21:30;;;;;;;;;1.80;1.80;;;;;17.37;63.56;99150.00;5048929;28;8875;-73
2023/09/24 02:23:59;;;;;;;;;3.60;2.60;;;;;17.45;64.20;99162.84;5013391;28;8891;-74
2023/09/24 02:26:28;;;;;;;;;3.60;1.80;;;;;17.54;62.78;99169.47;5043997;28;8845;-74
2023/09/24 02:28:58;;;;;;;;;2.60;2.60;;;;;17.61;62.39;99162.00;5063838;28;8861;-75
2023/09/24 02:31:27;;;;;;;;;1.80;1.60;;;;;17.60;61.67;99139.03;4997762;28;8857;-74
2023/09/24 02:33:56;;;;;;;;;1.60;1.60;;;;;17.57;61.76;99116.13;5048789;28;8938;-75
2023/09/24 02:36:25;;;;;;;;;0.00;0.00;;;;;17.50;61.67;99118.28;5064014;28;8857;-76
2023/09/24 02:38:56;;;;;;;;;1.00;1.00;;;;;17.26;62.20;99124.97;5030424;28;8852;-74
2023/09/24 02:41:24;;;;;;;;;0.60;0.60;;;;;17.21;62.92;99127.84;5051121;28;9026;-75
2023/09/24 02:43:54;;;;;;;;;2.20;2.20;;;;;17.42;62.20;99125.84;5046214;28;8848;-75
2023/09/24 02:46:26;;;;;;;;;2.00;2.00;;;;;17.32;61.91;99114.00;5052665;28;8995;-74
2023/09/24 02:48:55;;;;;;;;;1.20;1.20;;;;;17.29;61.28;99100.91;5056058;28;8865;-75
2023/09/24 02:51:24;;;;;;;;;0.80;0.80;;;;;17.31;61.49;99091.91;5064716;28;8880;-73
2023/09/24 02:53:53;;;;;;;;;1.60;1.60;;;;;17.39;60.89;99091.47;5014715;28;8861;-75
2023/09/24 02:56:21;;;;;;;;;2.80;2.80;;;;;17.38;61.36;99092.41;5048783;28;8861;-73
2023/09/24 02:58:50;;;;;;;;;0.80;0.80;;;;;17.40;61.12;99087.88;5047094;28;8946;-74
2023/09/24 03:01:20;;;;;;;;;1.00;1.00;;;;;17.43;60.49;99073.56;5046832;28;8861;-76
2023/09/24 03:03:51;;;;;;;;;1.40;1.40;;;;;17.32;60.69;99058.22;5047016;28;8861;-76
2023/09/24 03:06:20;;;;;;;;;1.00;0.60;;;;;17.33;59.64;99067.91;5047121;28;8877;-74
2023/09/24 03:08:50;;;;;;;;;0.20;0.20;;;;;17.34;59.18;99074.94;5048290;28;8861;-74
2023/09/24 03:11:18;;;;;;;;;0.80;0.80;;;;;17.47;58.22;99083.06;5048418;28;8864;-73
2023/09/24 03:13:48;;;;;;;;;0.80;0.80;;;;;17.47;58.25;99091.03;5046041;28;8829;-75
2023/09/24 03:16:17;;;;;;;;;0.60;0.60;;;;;17.55;58.27;99096.75;5063401;28;8961;-75
2023/09/24 03:18:46;;;;;;;;;1.40;1.40;;;;;17.39;60.15;99115.38;5046362;28;8863;-74
2023/09/24 03:21:17;;;;;;;;;1.80;1.80;;;;;17.51;60.13;99121.81;5046945;28;8873;-73
2023/09/24 03:23:46;;;;;;;;;1.60;1.60;;;;;17.50;60.67;99117.44;5048332;28;8853;-73
2023/09/24 03:26:16;;;;;;;;;1.00;0.60;;;;;17.00;62.15;99111.28;5046292;28;9542;-73
2023/09/24 03:28:45;;;;;;;;;1.00;1.00;;;;;17.16;61.04;99095.38;5048164;28;9645;-73
2023/09/24 03:31:14;;;;;;;;;0.20;0.20;;;;;17.18;59.95;99091.69;4980471;28;8883;-77
2023/09/24 03:33:43;;;;;;;;;0.80;0.80;;;;;17.21;59.97;99098.63;5047501;28;8887;-76
2023/09/24 03:36:12;;;;;;;;;0.80;0.80;;;;;17.25;59.27;99097.56;5030998;28;8878;-76
2023/09/24 03:38:43;;;;;;;;;1.60;1.20;;;;;17.35;58.90;99101.41;5031849;28;8871;-75
2023/09/24 03:41:12;;;;;;;;;0.60;0.40;;;;;17.45;58.87;99096.44;5059119;28;8867;-73
2023/09/24 03:43:42;;;;;;;;;1.00;1.00;;;;;17.55;58.39;99092.31;5075774;28;8829;-74
2023/09/24 03:46:11;;;;;;;;;1.60;1.60;;;;;17.55;58.67;99097.63;5051937;28;8948;-76
2023/09/24 03:48:40;;;;;;;;;1.20;1.20;;;;;17.55;56.05;99097.63;5072427;28;8816;-74
2023/09/24 03:51:10;;;;;;;;;0.00;0.00;;;;;17.39;56.36;99096.78;5055928;28;8868;-75
2023/09/24 03:53:39;;;;;;;;;0.80;0.80;;;;;17.41;56.88;99108.19;5075650;28;8895;-75
2023/09/24 03:56:09;;;;;;;;;2.00;0.80;;;;;17.41;57.51;99116.16;5036451;28;8868;-75
2023/09/24 03:58:38;;;;;;;;;1.00;1.00;;;;;17.33;58.39;99121.91;5054154;28;8848;-73
2023/09/24 04:01:09;;;;;;;;;2.00;1.00;;;;;17.43;58.13;99102.78;5073760;28;8852;-74
2023/09/24 04:03:38;;;;;;;;;2.00;2.00;;;;;17.41;58.53;99099.38;5076516;28;8857;-75
2023/09/24 04:06:11;;;;;;;;;2.60;0.80;;;;;17.49;58.93;99116.56;5072298;28;8852;-75
2023/09/24 04:08:41;;;;;;;;;2.00;2.00;;;;;17.47;59.22;99113.13;5052547;28;8882;-74
2023/09/24 04:11:15;;;;;;;;;1.80;1.80;;;;;17.50;59.11;99106.81;5068945;28;8852;-75
2023/09/24 04:13:44;;;;;;;;;1.60;1.60;;;;;17.51;59.19;99112.06;5051189;28;9659;-75
2023/09/24 04:16:14;;;;;;;;;0.80;0.80;;;;;17.49;59.56;99121.88;5051349;28;9614;-74
2023/09/24 04:18:44;;;;;;;;;1.80;1.80;;;;;17.54;59.12;99129.63;5049164;28;8849;-76
2023/09/24 04:21:17;;;;;;;;;3.20;2.60;;;;;17.57;59.22;99138.28;5066750;28;8989;-77
2023/09/24 04:23:47;;;;;;;;;2.40;2.40;;;;;17.62;58.97;99135.34;5051060;28;8841;-75
2023/09/24 04:26:25;;;;;;;;;4.60;3.00;;;;;17.57;59.27;99140.03;5050836;28;8930;-76
2023/09/24 04:28:55;;;;;;;;;1.80;1.80;;;;;17.43;57.98;99163.91;5051013;28;9705;-76
2023/09/24 04:31:24;;;;;;;;;2.80;2.00;;;;;17.35;57.82;99167.84;5054201;28;10015;-74
2023/09/24 04:33:53;;;;;;;;;2.00;0.80;;;;;16.95;57.77;99161.16;5053297;28;8845;-74
2023/09/24 04:36:23;;;;;;;;;0.80;0.80;;;;;17.02;57.10;99165.16;5034163;28;8961;-75
2023/09/24 04:38:52;;;;;;;;;0.80;0.80;;;;;17.23;57.43;99167.59;5031487;28;8944;-75
2023/09/24 04:41:24;;;;;;;;;1.60;1.60;;;;;17.02;57.85;99159.84;4996923;28;8872;-75
2023/09/24 04:43:53;;;;;;;;;1.20;1.20;;;;;17.25;57.85;99156.00;5033155;28;8874;-75
2023/09/24 04:46:22;;;;;;;;;0.00;0.00;;;;;17.20;56.79;99166.84;5031256;28;9698;-74
2023/09/24 04:48:51;;;;;;;;;0.60;0.00;;;;;17.17;56.15;99164.38;5038782;28;8868;-76
2023/09/24 04:51:20;;;;;;;;;1.80;0.60;;;;;16.61;58.21;99165.59;5051153;28;8879;-74
2023/09/24 04:53:49;;;;;;;;;2.00;1.60;;;;;16.51;58.88;99188.22;5049691;28;8857;-73
2023/09/24 04:56:18;;;;;;;;;1.00;1.00;;;;;16.79;59.43;99204.41;5050780;28;8886;-75
2023/09/24 04:58:48;;;;;;;;;1.40;1.40;;;;;16.92;59.07;99211.75;5049104;28;8942;-73
2023/09/24 05:01:17;;;;;;;;;10.80;10.20;;;;;17.07;59.03;99213.59;5050258;28;8897;-75
2023/09/24 05:03:49;;;;;;;;;46.75;39.25;;;;;17.23;58.66;99239.31;5049816;28;8837;-73
2023/09/24 05:06:19;;;;;;;;;2.80;2.80;;;;;16.97;59.14;99253.06;5050487;28;8841;-72
2023/09/24 05:08:48;;;;;;;;;3.40;2.80;;;;;17.19;58.68;99244.81;5049905;28;8860;-75
2023/09/24 05:11:17;;;;;;;;;1.00;1.00;;;;;17.23;58.02;99226.03;5018458;28;8899;-76
2023/09/24 05:13:45;;;;;;;;;1.40;1.40;;;;;17.29;58.62;99220.47;5029935;28;8855;-76
2023/09/24 05:16:16;;;;;;;;;1.00;1.00;;;;;17.37;58.69;99228.84;5028773;28;8867;-75
2023/09/24 05:18:45;;;;;;;;;0.80;0.80;;;;;17.44;58.05;99232.91;5030154;28;8828;-77
2023/09/24 05:21:15;;;;;;;;;0.80;0.80;;;;;17.53;58.69;99227.09;5029921;28;8864;-75
2023/09/24 05:23:44;;;;;;;;;1.80;1.00;;;;;17.43;57.73;99231.19;5030213;28;8906;-76
2023/09/24 05:26:14;;;;;;;;;1.00;1.00;;;;;17.49;56.96;99224.66;5034541;28;8899;-76
2023/09/24 05:28:43;;;;;;;;;1.60;0.00;;;;;17.43;55.34;99222.34;5067589;28;8951;-73
2023/09/24 05:31:12;;;;;;;;;42.20;34.40;;;;;17.48;55.50;99210.53;5056084;28;8876;-73
2023/09/24 05:33:44;;;;;;;;;4.00;2.40;;;;;17.43;54.36;99217.03;5052528;28;8860;-74
2023/09/24 05:36:13;;;;;;;;;1.40;1.20;;;;;17.54;55.28;99193.38;5048917;28;8877;-73
2023/09/24 05:38:42;;;;;;;;;1.40;1.40;;;;;17.56;54.54;99164.94;5049881;28;8877;-76
2023/09/24 05:41:10;;;;;;;;;1.00;1.00;;;;;17.49;54.37;99156.44;5047577;28;8849;-76
2023/09/24 05:43:44;;;;;;;;;0.20;0.00;;;;;17.57;55.53;99163.97;5045668;28;8861;-73
2023/09/24 05:46:14;;;;;;;;;0.80;0.80;;;;;17.53;53.98;99150.03;5064909;28;8965;-73
2023/09/24 05:48:44;;;;;;;;;0.60;0.60;;;;;17.56;55.17;99139.19;5069266;28;8843;-75
2023/09/24 05:51:13;;;;;;;;;0.00;0.00;;;;;17.47;54.17;99146.84;5084989;28;8866;-74
2023/09/24 05:53:42;;;;;;;;;0.00;0.00;;;;;17.52;53.67;99142.13;5033716;28;8882;-74
2023/09/24 05:56:11;;;;;;;;;0.80;0.80;;;;;17.34;55.01;99120.09;5050648;28;8883;-74
2023/09/24 05:58:40;;;;;;;;;1.00;1.00;;;;;17.42;54.39;99122.31;5049325;28;8891;-74
2023/09/24 06:01:08;;;;;;;;;0.80;0.80;;;;;17.43;54.87;99126.69;5048151;28;8841;-73
2023/09/24 06:03:37;;;;;;;;;8.20;8.20;;;;;17.45;55.07;99130.13;5049308;28;8849;-75
2023/09/24 06:06:10;;;;;;;;;65.25;52.50;;;;;17.48;53.88;99108.72;5048669;28;8861;-76
2023/09/24 06:08:39;;;;;;;;;2.80;2.80;;;;;17.48;52.52;99122.00;5048771;28;8928;-76
2023/09/24 06:11:09;;;;;;;;;1.00;1.00;;;;;17.58;52.50;99121.38;5047329;28;9583;-76
2023/09/24 06:13:39;;;;;;;;;0.00;0.00;;;;;17.66;53.23;99125.38;5029652;28;8850;-76
2023/09/24 06:16:07;;;;;;;;;0.60;0.60;;;;;17.61;53.89;99146.06;5012409;28;8838;-73
2023/09/24 06:18:36;;;;;;;;;0.20;0.20;;;;;17.34;54.95;99150.19;5026650;28;8942;-74
2023/09/24 06:21:15;;;;;;;;;2.80;1.80;;;;;17.52;54.50;99158.06;5010871;28;8942;-74
2023/09/24 06:23:43;;;;;;;;;2.00;1.60;;;;;17.58;55.44;99182.50;5016566;28;8852;-76
2023/09/24 06:26:13;;;;;;;;;1.60;1.60;;;;;17.69;54.47;99197.00;5035207;28;8947;-74
2023/09/24 06:28:42;;;;;;;;;1.60;1.60;;;;;17.83;55.65;99212.16;5029821;28;8908;-74
2023/09/24 06:31:27;;;;;;;;;47.00;40.25;;;;;17.93;54.19;99214.22;5029634;28;8849;-74
2023/09/24 06:33:57;;;;;;;;;82.00;74.33;;;;;17.73;53.47;99217.16;5055830;28;8832;-76
2023/09/24 06:36:27;;;;;;;;;4.00;3.20;;;;;17.56;53.78;99221.59;5065825;28;8952;-75
2023/09/24 06:38:56;;;;;;;;;3.40;2.80;;;;;17.10;56.33;99228.53;5065557;28;8839;-77
2023/09/24 06:41:25;;;;;;;;;4.00;3.00;;;;;17.33;56.62;99219.34;5065577;28;8860;-74
2023/09/24 06:43:57;;;;;;;;;2.60;2.60;;;;;17.56;56.52;99213.63;5063400;28;8836;-76
2023/09/24 06:46:26;;;;;;;;;2.20;2.20;;;;;17.80;56.51;99230.94;5048081;28;8845;-74
2023/09/24 06:48:55;;;;;;;;;4.40;4.40;;;;;18.05;55.44;99238.44;5047062;28;9007;-73
2023/09/24 06:51:24;;;;;;;;;4.00;4.00;;;;;18.05;54.33;99236.63;5028993;28;8986;-77
2023/09/24 06:53:54;;;;;;;;;2.80;2.80;;;;;18.24;54.31;99236.44;5027250;28;8871;-75
2023/09/24 06:56:23;;;;;;;;;8.60;7.80;;;;;18.39;52.17;99239.16;5028928;28;9681;-74
2023/09/24 06:58:52;;;;;;;;;18.60;17.60;;;;;18.41;51.27;99248.75;5028306;28;10131;-75
2023/09/24 07:01:20;;;;;;;;;23.80;23.40;;;;;18.42;51.58;99237.19;5037042;28;9628;-75
2023/09/24 07:03:51;;;;;;;;;17.20;15.20;;;;;18.50;52.21;99247.38;5050656;28;8875;-74
2023/09/24 07:06:21;;;;;;;;;5.00;4.00;;;;;18.61;51.98;99228.97;5074391;28;8903;-74
2023/09/24 07:08:51;;;;;;;;;3.20;3.00;;;;;18.63;52.07;99229.72;5058094;28;8874;-76
2023/09/24 07:11:26;;;;;;;;;3.00;3.00;;;;;18.82;52.47;99225.97;5054406;28;8899;-74
2023/09/24 07:13:55;;;;;;;;;3.60;3.60;;;;;18.79;52.39;99227.03;5052732;28;9602;-75
2023/09/24 07:16:25;;;;;;;;;3.40;2.60;;;;;18.97;52.38;99222.41;5052258;28;8853;-76
2023/09/24 07:18:56;;;;;;;;;3.80;2.80;;;;;19.05;51.86;99224.59;5051479;28;8890;-76
2023/09/24 07:21:28;;;;;;;;;1.40;1.40;;;;;18.91;50.06;99222.75;5052671;28;8845;-77
2023/09/24 07:24:05;;;;;;;;;2.20;2.00;;;;;19.11;50.26;99219.72;5052263;28;8849;-76
2023/09/24 07:26:35;;;;;;;;;0.00;0.00;;;;;19.16;50.51;99222.13;5050142;28;8918;-76
2023/09/24 07:29:05;;;;;;;;;0.60;0.60;;;;;19.09;49.40;99232.28;5050592;28;8912;-73
2023/09/24 07:31:34;;;;;;;;;2.00;2.00;;;;;19.16;49.07;99232.78;5051058;28;9619;-75
2023/09/24 07:34:04;;;;;;;;;3.00;2.60;;;;;19.30;48.88;99227.44;5043255;28;8843;-76
2023/09/24 07:36:33;;;;;;;;;2.00;2.00;;;;;19.36;48.23;99226.19;5031512;28;8847;-75
2023/09/24 07:39:20;;;;;;;;;0.00;0.00;;;;;19.52;48.14;99232.31;5031615;28;8990;-75
2023/09/24 07:41:51;;;;;;;;;3.00;2.20;;;;;19.71;47.61;99237.34;5044977;28;9619;-76
2023/09/24 07:44:20;;;;;;;;;1.80;1.40;;;;;19.82;47.73;99247.31;5051976;28;8853;-75
2023/09/24 07:46:49;;;;;;;;;1.00;1.00;;;;;20.01;47.31;99249.66;5052148;28;8842;-77
2023/09/24 07:49:18;;;;;;;;;1.20;1.20;;;;;20.16;46.96;99245.13;5051971;28;8869;-74
2023/09/24 07:51:46;;;;;;;;;2.00;2.00;;;;;20.18;45.98;99261.03;5032294;28;8840;-76
2023/09/24 07:54:15;;;;;;;;;3.00;2.80;;;;;20.32;46.98;99260.16;4996567;28;8831;-74
2023/09/24 07:56:44;;;;;;;;;1.00;1.00;;;;;20.46;46.19;99263.63;5049689;28;8876;-76
2023/09/24 07:59:15;;;;;;;;;3.00;3.00;;;;;19.57;46.86;99268.50;5051535;28;8923;-74
2023/09/24 08:01:44;;;;;;;;;3.80;3.80;;;;;19.40;47.56;99267.69;5049999;28;9759;-74
2023/09/24 08:04:13;;;;;;;;;4.00;4.00;;;;;18.98;49.61;99265.88;5051277;28;8876;-74
2023/09/24 08:06:42;;;;;;;;;2.60;2.00;;;;;18.98;49.79;99272.03;5047348;28;8880;-77
2023/09/24 08:09:12;;;;;;;;;3.40;3.40;;;;;18.77;50.50;99267.97;5031132;28;8910;-76
2023/09/24 08:11:54;;;;;;;;;3.00;3.00;;;;;18.88;49.84;99274.41;5030657;28;8884;-75
2023/09/24 08:14:25;;;;;;;;;3.20;2.00;;;;;19.23;49.51;99270.53;5050830;28;8856;-76
2023/09/24 08:16:54;;;;;;;;;2.60;2.60;;;;;19.54;49.35;99276.66;5050202;28;8889;-77
2023/09/24 08:19:26;;;;;;;;;2.00;2.00;;;;;19.77;48.38;99277.91;5050277;28;8868;-75
2023/09/24 08:21:54;;;;;;;;;3.00;3.00;;;;;19.93;47.75;99270.63;5051258;28;8853;-74
2023/09/24 08:24:23;;;;;;;;;3.80;2.80;;;;;19.91;48.23;99269.84;5047333;28;8873;-75
2023/09/24 08:26:52;;;;;;;;;1.80;1.80;;;;;20.14;48.13;99281.75;5046142;28;8882;-77
2023/09/24 08:29:21;;;;;;;;;5.40;4.80;;;;;20.32;47.49;99289.53;5033804;28;8875;-78
2023/09/24 08:31:51;;;;;;;;;2.00;2.00;;;;;19.82;49.17;99298.00;5051204;28;8938;-78
2023/09/24 08:34:20;;;;;;;;;3.00;3.00;;;;;18.85;52.06;99295.03;5051208;28;9590;-75
2023/09/24 08:36:49;;;;;;;;;2.40;2.20;;;;;18.96;51.64;99313.91;5049923;28;8871;-75
2023/09/24 08:39:18;;;;;;;;;3.20;3.00;;;;;18.75;52.31;99319.50;5054961;28;8988;-74
2023/09/24 08:41:47;;;;;;;;;3.00;3.00;;;;;18.12;53.23;99319.63;5055323;28;8890;-76
2023/09/24 08:44:18;;;;;;;;;2.00;2.00;;;;;17.72;52.54;99325.28;5033507;28;9584;-76
2023/09/24 08:46:50;;;;;;;;;3.20;3.00;;;;;17.61;53.97;99332.09;5048582;28;8944;-75
2023/09/24 08:49:21;;;;;;;;;2.40;2.40;;;;;17.58;53.76;99333.13;5047530;28;9052;-76
2023/09/24 08:51:51;;;;;;;;;2.00;2.00;;;;;17.37;53.67;99335.97;5047452;28;8850;-76
2023/09/24 08:54:20;;;;;;;;;3.80;3.00;;;;;17.33;53.03;99342.41;5031066;28;8862;-77
2023/09/24 08:56:48;;;;;;;;;1.60;1.00;;;;;17.50;52.02;99345.97;5030054;28;8919;-76
2023/09/24 08:59:17;;;;;;;;;3.40;3.40;;;;;17.27;53.41;99341.84;5047868;28;8996;-75
2023/09/24 09:01:53;;;;;;;;;3.00;2.00;;;;;17.03;54.89;99336.84;5047724;28;8854;-75
2023/09/24 09:04:23;;;;;;;;;1.80;1.40;;;;;16.66;56.82;99322.75;5031603;28;8866;-75
2023/09/24 09:06:53;;;;;;;;;2.80;2.20;;;;;16.70;57.74;99316.38;5047756;28;8846;-79
2023/09/24 09:09:27;;;;;;;;;1.80;1.80;;;;;16.85;56.69;99316.53;5047171;28;8861;-75
2023/09/24 09:11:56;;;;;;;;;3.00;3.00;;;;;16.70;56.47;99302.25;5028884;28;8864;-74
2023/09/24 09:14:37;;;;;;;;;4.00;2.80;;;;;16.78;58.05;99302.72;5029390;28;8844;-74
2023/09/24 09:17:06;;;;;;;;;2.20;2.20;;;;;16.54;58.99;99308.31;5030488;28;8882;-76
2023/09/24 09:19:52;;;;;;;;;1.60;1.60;;;;;16.40;59.14;99308.97;5032864;28;8872;-74
2023/09/24 09:22:22;;;;;;;;;2.60;2.60;;;;;16.47;58.98;99311.34;5035797;28;8868;-74
2023/09/24 09:25:04;;;;;;;;;1.60;1.60;;;;;16.41;60.28;99315.13;5050957;28;8877;-76
2023/09/24 09:27:33;;;;;;;;;4.80;3.60;;;;;16.48;60.42;99313.09;5048744;28;9625;-74
2023/09/24 09:30:14;;;;;;;;;4.40;4.40;;;;;16.80;58.20;99322.09;5050536;28;8849;-75
2023/09/24 09:32:44;;;;;;;;;1.20;1.20;;;;;16.53;57.74;99324.31;5052007;28;8837;-74
2023/09/24 09:35:16;;;;;;;;;1.00;0.80;;;;;16.42;59.28;99324.81;5061816;28;8837;-74
2023/09/24 09:37:46;;;;;;;;;1.80;1.80;;;;;16.05;61.78;99318.63;5055822;28;8861;-77
2023/09/24 09:40:18;;;;;;;;;2.20;2.20;;;;;16.04;62.48;99322.22;5048583;28;8842;-75
2023/09/24 09:42:50;;;;;;;;;3.40;3.40;;;;;15.91;63.28;99340.47;5049907;28;8907;-75
2023/09/24 09:45:21;;;;;;;;;3.00;3.00;;;;;15.87;63.71;99345.97;5050359;28;8861;-75
2023/09/24 09:48:01;;;;;;;;;3.00;3.00;;;;;15.64;64.92;99348.78;5049065;28;9677;-77
2023/09/24 09:50:36;;;;;;;;;4.20;3.20;;;;;15.73;65.41;99333.38;5048519;28;8875;-77
2023/09/24 09:53:08;;;;;;;;;5.20;4.80;;;;;15.97;64.65;99328.72;5048715;28;8865;-74
2023/09/24 09:55:40;;;;;;;;;3.80;3.80;;;;;16.03;62.28;99325.78;5048114;28;8853;-75
2023/09/24 09:58:09;;;;;;;;;3.60;3.60;;;;;16.25;61.44;99317.69;5049557;28;8853;-75
2023/09/24 10:00:53;;;;;;;;;2.80;2.80;;;;;16.67;60.33;99326.28;5049162;28;8856;-75
2023/09/24 10:03:24;;;;;;;;;4.00;2.40;;;;;16.98;59.44;99328.25;5048411;28;9607;-78
2023/09/24 10:05:57;;;;;;;;;3.20;2.80;;;;;17.01;59.63;99338.72;5049489;28;8841;-76
2023/09/24 10:08:36;;;;;;;;;2.20;2.20;;;;;17.28;58.84;99349.75;5030479;28;8841;-77
2023/09/24 10:11:06;;;;;;;;;3.40;3.40;;;;;17.60;58.21;99349.84;5014173;28;8841;-76
2023/09/24 10:13:44;;;;;;;;;2.20;2.20;;;;;17.67;56.75;99371.66;5029954;28;8891;-76
2023/09/24 10:16:38;;;;;;;;;2.20;2.20;;;;;17.73;55.44;99385.47;5048393;28;8949;-78
2023/09/24 10:19:09;;;;;;;;;3.00;1.00;;;;;17.93;55.20;99387.06;5048617;28;9753;-75
2023/09/24 10:21:43;;;;;;;;;2.60;2.60;;;;;17.14;57.61;99392.94;5037738;28;8844;-75
2023/09/24 10:24:48;;;;;;;;;4.80;4.80;;;;;17.25;58.25;99383.53;5040263;28;8846;-76
2023/09/24 10:27:28;;;;;;;;;4.60;4.60;;;;;17.92;56.90;99389.81;5050976;28;8872;-73
2023/09/24 10:30:04;;;;;;;;;6.00;6.00;;;;;18.13;55.80;99398.44;5057846;28;9065;-74
2023/09/24 10:32:50;;;;;;;;;6.40;5.00;;;;;18.28;56.05;99418.91;5052115;28;8861;-74
2023/09/24 10:35:20;;;;;;;;;4.00;4.00;;;;;18.15;55.50;99412.53;5048975;28;8853;-75
2023/09/24 10:38:04;;;;;;;;;3.00;2.00;;;;;17.40;56.84;99417.34;5014466;28;8895;-75
2023/09/24 10:40:35;;;;;;;;;2.60;1.80;;;;;17.04;58.35;99410.28;5047455;28;8841;-75
2023/09/24 10:43:17;;;;;;;;;4.80;4.80;;;;;17.33;57.26;99407.97;5048528;28;8833;-76
2023/09/24 10:45:48;;;;;;;;;2.20;2.20;;;;;17.14;57.96;99408.88;5047921;28;8857;-77
2023/09/24 10:48:19;;;;;;;;;3.20;3.00;;;;;17.35;57.66;99414.91;5029313;28;8893;-75
2023/09/24 10:51:03;;;;;;;;;7.00;7.00;;;;;17.27;59.08;99424.19;5058421;28;8880;-77
2023/09/24 10:53:34;;;;;;;;;6.00;6.00;;;;;17.76;57.86;99429.66;5068455;28;9686;-75
2023/09/24 10:56:03;;;;;;;;;8.00;8.00;;;;;16.70;61.02;99425.22;5068522;28;8850;-77
2023/09/24 10:58:49;;;;;;;;;5.00;5.00;;;;;16.64;61.79;99420.19;5051425;28;8873;-75
2023/09/24 11:01:30;;;;;;;;;38.60;32.00;;;;;16.70;62.25;99425.22;5045596;28;8857;-74
2023/09/24 11:03:59;;;;;;;;;8.00;7.20;;;;;16.30;63.80;99423.53;5052421;28;8864;-76
2023/09/24 11:06:31;;;;;;;;;10.60;8.60;;;;;16.22;64.44;99422.09;5051182;28;8946;-74
2023/09/24 11:09:19;;;;;;;;;8.60;8.60;;;;;16.42;63.87;99410.56;5057635;28;8871;-73
2023/09/24 11:11:47;;;;;;;;;7.60;7.60;;;;;16.37;64.18;99415.22;5017722;28;8869;-74
2023/09/24 11:14:22;;;;;;;;;9.80;8.40;;;;;16.68;63.70;99419.13;5046966;28;9049;-78
2023/09/24 11:16:52;;;;;;;;;7.00;7.00;;;;;16.98;62.58;99421.19;5048199;28;8849;-76
2023/09/24 11:19:43;;;;;;;;;9.00;9.00;;;;;17.07;62.32;99423.38;5047634;28;8967;-77
2023/09/24 11:22:17;;;;;;;;;9.00;9.00;;;;;17.03;62.28;99437.75;5028681;28;8872;-76
2023/09/24 11:24:50;;;;;;;;;10.20;10.20;;;;;17.26;61.79;99438.44;5047638;28;8838;-74
2023/09/24 11:27:19;;;;;;;;;6.60;6.60;;;;;16.63;64.38;99436.19;5046385;28;8861;-74
2023/09/24 11:29:58;;;;;;;;;12.40;10.60;;;;;16.10;66.49;99430.63;5047822;28;8849;-75
2023/09/24 11:32:27;;;;;;;;;9.80;9.80;;;;;15.77;68.41;99412.66;5050166;28;8849;-75
2023/09/24 11:35:07;;;;;;;;;13.60;13.60;;;;;15.27;70.58;99409.56;5059864;28;9129;-74
2023/09/24 11:37:46;;;;;;;;;12.20;11.60;;;;;15.35;70.61;99407.44;5052713;28;9603;-75
2023/09/24 11:40:28;;;;;;;;;19.00;17.80;;;;;15.56;70.11;99413.59;5048342;28;9621;-76
2023/09/24 11:42:58;;;;;;;;;33.00;30.40;;;;;15.91;68.71;99400.59;5047942;28;8861;-75
2023/09/24 11:45:42;;;;;;;;;43.75;37.25;;;;;15.72;68.98;99390.81;5047568;28;8993;-76
2023/09/24 11:48:13;;;;;;;;;21.00;19.80;;;;;15.37;70.68;99387.88;5026169;28;8891;-76
2023/09/24 11:50:44;;;;;;;;;24.00;24.00;;;;;15.05;72.50;99394.56;5048901;28;8919;-75
2023/09/24 11:53:14;;;;;;;;;26.20;23.60;;;;;15.19;72.11;99391.34;5035575;28;8987;-75
2023/09/24 11:55:44;;;;;;;;;22.60;22.60;;;;;15.12;72.53;99376.66;5051800;28;8849;-74
2023/09/24 11:58:13;;;;;;;;;35.40;32.00;;;;;15.35;70.95;99386.25;5048869;28;9450;-77
2023/09/24 12:00:44;;;;;;;;;36.80;32.00;;;;;14.97;72.37;99392.22;5048861;28;8900;-74